TAF KPLN
KPLN 081723Z 0818/0918 29007KT P6SM SCT050 FM082000 29006KT P6SM BKN070 FM090000 VRB03KT P6SM BKN070 FM090200 VRB04KT P6SM BKN050 FM091600 15008KT P6SM OVC050=
METAR KPLN
WC KPLN
WS KPLN
WV KPLN